createdAt,value
2019-04-11T00:00:01.301Z,17.20
2019-04-11T00:02:33.021Z,16.70
2019-04-11T00:05:04.354Z,19.85
2019-04-11T00:07:36.294Z,17.20
2019-04-11T00:10:08.194Z,18.97
2019-04-11T00:12:38.906Z,19.70
2019-04-11T00:15:09.316Z,18.77
2019-04-11T00:17:41.830Z,17.40
2019-04-11T00:20:13.789Z,17.27
2019-04-11T00:22:44.438Z,17.37
2019-04-11T00:25:15.658Z,18.90
2019-04-11T00:27:46.196Z,19.50
2019-04-11T00:30:17.810Z,19.17
2019-04-11T00:32:49.687Z,20.57
2019-04-11T00:35:20.288Z,20.07
2019-04-11T00:37:53.640Z,20.47
2019-04-11T00:40:24.874Z,20.27
2019-04-11T00:42:55.428Z,24.05
2019-04-11T00:45:25.826Z,22.40
2019-04-11T00:47:59.535Z,22.33
2019-04-11T00:50:30.164Z,23.87
2019-04-11T00:53:01.479Z,23.53
2019-04-11T00:55:32.493Z,24.50
2019-04-11T00:58:03.489Z,26.80
2019-04-11T01:00:36.514Z,26.53
2019-04-11T01:03:06.525Z,27.70
2019-04-11T01:05:37.381Z,28.20
2019-04-11T01:08:08.301Z,29.77
2019-04-11T01:10:39.722Z,33.67
2019-04-11T01:13:11.180Z,31.67
2019-04-11T01:15:43.473Z,31.03
2019-04-11T01:18:14.009Z,31.77
2019-04-11T01:20:44.481Z,30.53
2019-04-11T01:23:15.153Z,30.10
2019-04-11T01:25:46.456Z,30.20
2019-04-11T01:28:17.026Z,30.47
2019-04-11T01:30:49.247Z,30.47
2019-04-11T01:33:20.678Z,30.30
2019-04-11T01:35:51.594Z,30.30
2019-04-11T01:38:25.538Z,32.90
2019-04-11T01:40:56.221Z,35.57
2019-04-11T01:43:26.715Z,36.27
2019-04-11T01:45:57.987Z,32.70
2019-04-11T01:48:42.453Z,32.00
2019-04-11T01:51:13.746Z,31.40
2019-04-11T01:53:45.245Z,29.73
2019-04-11T01:56:16.810Z,30.50
2019-04-11T01:58:47.641Z,29.83
2019-04-11T02:01:34.877Z,33.73
2019-04-11T02:04:07.739Z,27.63
2019-04-11T02:06:38.431Z,28.03
2019-04-11T02:09:13.757Z,29.40
2019-04-11T02:11:45.736Z,29.10
2019-04-11T02:14:19.243Z,26.60
2019-04-11T02:16:50.626Z,28.20
2019-04-11T02:19:20.707Z,29.60
2019-04-11T02:21:53.710Z,29.10
2019-04-11T02:24:41.739Z,32.20
2019-04-11T02:27:19.034Z,28.80
2019-04-11T02:29:50.836Z,25.77
2019-04-11T02:32:24.422Z,25.40
2019-04-11T02:34:57.118Z,26.40
2019-04-11T02:37:26.597Z,29.85
2019-04-11T02:39:58.050Z,26.20
2019-04-11T02:42:30.812Z,25.73
2019-04-11T02:45:16.452Z,25.43
2019-04-11T02:47:37.237Z,26.50
2019-04-11T02:50:08.307Z,25.87
2019-04-11T02:52:40.235Z,28.40
2019-04-11T02:55:13.009Z,26.53
2019-04-11T02:57:43.175Z,23.13
2019-04-11T03:00:15.848Z,23.23
2019-04-11T03:02:47.897Z,22.27
2019-04-11T03:05:20.711Z,22.17
2019-04-11T03:07:51.554Z,22.20
2019-04-11T03:10:22.475Z,19.00
2019-04-11T03:12:54.451Z,19.37
2019-04-11T03:15:41.452Z,18.53
2019-04-11T03:18:01.973Z,18.83
2019-04-11T03:20:38.301Z,17.93
2019-04-11T03:23:05.808Z,19.27
2019-04-11T03:25:34.157Z,20.33
2019-04-11T03:28:13.775Z,21.17
2019-04-11T03:31:01.311Z,20.43
2019-04-11T03:36:38.027Z,19.90
2019-04-11T03:38:38.467Z,19.60
2019-04-11T03:41:05.971Z,20.70
2019-04-11T03:43:34.600Z,21.00
2019-04-11T03:46:15.976Z,21.80
2019-04-11T03:48:40.137Z,21.17
2019-04-11T03:50:59.391Z,21.47
2019-04-11T03:53:32.454Z,21.00
2019-04-11T03:56:04.403Z,20.97
2019-04-11T03:58:39.526Z,21.20
2019-04-11T04:01:13.999Z,21.20
2019-04-11T04:03:46.641Z,19.93
2019-04-11T04:06:19.129Z,20.13
2019-04-11T04:09:00.594Z,19.23
2019-04-11T04:11:32.070Z,20.40
2019-04-11T04:14:08.190Z,19.20
2019-04-11T04:16:49.904Z,21.80
2019-04-11T04:19:24.844Z,20.10
2019-04-11T04:22:16.072Z,20.37
2019-04-11T04:24:55.727Z,20.93
2019-04-11T04:27:32.458Z,17.30
2019-04-11T04:30:06.154Z,19.73
2019-04-11T04:32:38.496Z,27.17
2019-04-11T04:35:14.755Z,23.23
2019-04-11T04:37:43.910Z,21.03
2019-04-11T04:40:31.434Z,21.47
2019-04-11T04:42:51.030Z,19.70
2019-04-11T04:45:23.708Z,21.30
2019-04-11T04:48:01.422Z,20.13
2019-04-11T04:50:28.255Z,21.50
2019-04-11T04:53:00.939Z,21.30
2019-04-11T04:55:30.789Z,22.07
2019-04-11T04:58:02.039Z,19.70
2019-04-11T05:00:37.652Z,20.10
2019-04-11T05:03:19.889Z,21.27
2019-04-11T05:05:50.991Z,21.30
2019-04-11T05:08:22.888Z,21.80
2019-04-11T05:10:53.612Z,20.93
2019-04-11T05:13:24.538Z,21.97
2019-04-11T05:16:06.958Z,22.13
2019-04-11T05:18:27.951Z,22.83
2019-04-11T05:20:59.007Z,23.13
2019-04-11T05:23:29.821Z,21.67
2019-04-11T05:26:01.642Z,20.87
2019-04-11T05:28:32.297Z,21.67
2019-04-11T05:31:02.722Z,23.73
2019-04-11T05:33:33.255Z,31.83
2019-04-11T05:36:04.034Z,22.93
2019-04-11T05:38:34.518Z,22.53
2019-04-11T05:41:09.604Z,22.10
2019-04-11T05:43:38.629Z,22.20
2019-04-11T05:46:25.103Z,18.47
2019-04-11T05:49:00.612Z,16.87
2019-04-11T05:51:39.197Z,17.70
2019-04-11T05:54:07.328Z,18.27
2019-04-11T05:56:37.501Z,19.80
2019-04-11T05:59:17.197Z,18.60
2019-04-11T06:01:53.019Z,23.53
2019-04-11T06:04:34.443Z,20.73
2019-04-11T06:07:08.529Z,20.80
2019-04-11T06:09:41.604Z,21.83
2019-04-11T06:12:23.352Z,20.07
2019-04-11T06:15:01.988Z,21.37
2019-04-11T06:17:32.930Z,20.10
2019-04-11T06:20:06.149Z,18.87
2019-04-11T06:22:40.086Z,18.03
2019-04-11T06:25:25.836Z,18.90
2019-04-11T06:27:57.999Z,16.83
2019-04-11T06:30:33.117Z,20.20
2019-04-11T06:33:20.621Z,20.40
2019-04-11T06:36:09.616Z,19.27
2019-04-11T06:38:49.137Z,21.07
2019-04-11T06:41:38.860Z,22.80
2019-04-11T06:44:26.362Z,23.87
2019-04-11T06:47:14.716Z,23.70
2019-04-11T06:49:47.011Z,23.70
2019-04-11T06:52:17.568Z,24.00
2019-04-11T06:55:06.658Z,22.87
2019-04-11T06:57:51.259Z,22.70
2019-04-11T07:00:25.367Z,23.60
2019-04-11T07:02:57.395Z,22.47
2019-04-11T07:05:31.288Z,24.13
2019-04-11T07:08:03.360Z,24.70
2019-04-11T07:10:46.732Z,22.70
2019-04-11T07:13:18.893Z,18.60
2019-04-11T07:15:52.855Z,20.10
2019-04-11T07:18:40.129Z,18.63
2019-04-11T07:21:11.674Z,16.77
2019-04-11T07:23:59.784Z,17.50
2019-04-11T07:26:41.508Z,16.57
2019-04-11T07:29:29.911Z,17.98
2019-04-11T07:32:09.436Z,16.63
2019-04-11T07:34:58.020Z,16.80
2019-04-11T07:37:32.776Z,15.17
2019-04-11T07:40:15.576Z,17.40
2019-04-11T07:43:05.107Z,15.37
2019-04-11T07:45:41.773Z,13.40
2019-04-11T07:48:19.841Z,11.53
2019-04-11T07:50:54.133Z,12.30
2019-04-11T07:53:26.245Z,11.13
2019-04-11T07:55:57.807Z,9.13
2019-04-11T07:58:33.229Z,9.37
2019-04-11T08:01:08.263Z,9.87
2019-04-11T08:03:59.304Z,9.93
2019-04-11T08:06:47.954Z,9.97
2019-04-11T08:09:33.438Z,10.60
2019-04-11T08:12:06.545Z,9.43
2019-04-11T08:14:48.837Z,10.10
2019-04-11T08:17:33.276Z,9.90
2019-04-11T08:20:15.168Z,10.03
2019-04-11T08:22:47.599Z,10.90
2019-04-11T08:25:23.018Z,8.70
2019-04-11T08:28:00.748Z,9.30
2019-04-11T08:30:35.158Z,10.00
2019-04-11T08:33:07.416Z,8.60
2019-04-11T08:35:40.264Z,8.57
2019-04-11T08:38:22.414Z,8.23
2019-04-11T08:40:58.811Z,7.30
2019-04-11T08:43:37.313Z,7.35
2019-04-11T08:46:12.874Z,8.00
2019-04-11T08:48:54.046Z,8.88
2019-04-11T08:51:27.337Z,7.97
2019-04-11T08:54:09.126Z,7.10
2019-04-11T08:56:41.218Z,6.10
2019-04-11T08:59:27.266Z,5.83
2019-04-11T09:01:57.823Z,6.42
2019-04-11T09:04:46.143Z,6.00
2019-04-11T09:07:21.412Z,5.97
2019-04-11T09:10:09.909Z,6.05
2019-04-11T09:12:42.692Z,5.85
2019-04-11T09:15:22.336Z,6.28
2019-04-11T09:18:02.132Z,5.65
2019-04-11T09:20:47.746Z,6.12
2019-04-11T09:23:19.544Z,5.83
2019-04-11T09:25:57.551Z,6.20
2019-04-11T09:28:29.519Z,5.30
2019-04-11T09:31:19.558Z,4.92
2019-04-11T09:33:57.703Z,5.50
2019-04-11T09:36:36.799Z,4.90
2019-04-11T09:39:21.191Z,5.15
2019-04-11T09:42:10.456Z,4.30
2019-04-11T09:44:49.345Z,4.22
2019-04-11T09:47:22.145Z,5.12
2019-04-11T09:49:57.970Z,4.72
2019-04-11T09:52:31.066Z,4.92
2019-04-11T09:55:15.006Z,4.70
2019-04-11T09:57:48.161Z,4.47
2019-04-11T10:00:36.954Z,4.22
2019-04-11T10:03:19.530Z,4.53
2019-04-11T10:05:52.246Z,4.25
2019-04-11T10:08:27.333Z,4.45
2019-04-11T10:11:11.381Z,5.15
2019-04-11T10:14:01.751Z,4.62
2019-04-11T10:16:36.980Z,4.37
2019-04-11T10:19:18.008Z,4.62
2019-04-11T10:22:05.065Z,4.40
2019-04-11T10:24:46.375Z,4.20
2019-04-11T10:27:27.283Z,4.58
2019-04-11T10:30:15.658Z,4.47
2019-04-11T10:32:47.793Z,4.90
2019-04-11T10:35:20.208Z,4.83
2019-04-11T10:37:52.075Z,4.15
2019-04-11T10:40:42.254Z,5.62
2019-04-11T10:43:12.988Z,26.87
2019-04-11T10:45:53.818Z,9.43
2019-04-11T10:48:34.624Z,3.95
2019-04-11T10:51:00.391Z,4.58
2019-04-11T10:53:31.193Z,4.55
2019-04-11T10:56:19.657Z,5.33
2019-04-11T10:58:53.150Z,4.70
2019-04-11T11:01:42.306Z,4.75
2019-04-11T11:04:18.030Z,4.53
2019-04-11T11:06:51.712Z,4.75
2019-04-11T11:09:35.444Z,4.67
2019-04-11T11:12:12.718Z,4.50
2019-04-11T11:14:45.052Z,4.42
2019-04-11T11:17:44.240Z,4.55
2019-04-11T11:20:19.582Z,4.83
2019-04-11T11:22:44.458Z,4.75
2019-04-11T11:25:18.147Z,3.98
2019-04-11T11:27:50.272Z,4.58
2019-04-11T11:30:29.573Z,3.70
2019-04-11T11:33:00.346Z,4.30
2019-04-11T11:35:40.078Z,3.80
2019-04-11T11:38:09.357Z,4.30
2019-04-11T11:40:54.212Z,4.03
2019-04-11T11:43:32.975Z,3.70
2019-04-11T11:46:05.229Z,4.03
2019-04-11T11:48:37.439Z,3.60
2019-04-11T11:51:15.226Z,4.22
2019-04-11T11:53:51.073Z,3.85
2019-04-11T11:56:22.036Z,2.90
2019-04-11T11:58:59.324Z,2.83
2019-04-11T12:01:30.208Z,2.83
2019-04-11T12:04:08.662Z,3.10
2019-04-11T12:06:40.910Z,3.33
2019-04-11T12:09:16.399Z,3.58
2019-04-11T12:11:54.453Z,3.25
2019-04-11T12:14:45.020Z,3.30
2019-04-11T12:17:23.189Z,4.08
2019-04-11T12:20:05.448Z,3.58
2019-04-11T12:22:32.718Z,4.40
2019-04-11T12:25:10.644Z,3.95
2019-04-11T12:27:49.973Z,4.60
2019-04-11T12:30:35.726Z,4.03
2019-04-11T12:33:08.936Z,4.30
2019-04-11T12:35:44.332Z,4.08
2019-04-11T12:38:24.458Z,4.10
2019-04-11T12:40:55.888Z,4.00
2019-04-11T12:43:27.928Z,3.98
2019-04-11T12:46:16.413Z,4.37
2019-04-11T12:48:46.836Z,4.83
2019-04-11T12:51:27.693Z,4.10
2019-04-11T12:53:59.668Z,5.10
2019-04-11T12:56:37.593Z,4.65
2019-04-11T12:59:10.008Z,4.67
2019-04-11T13:01:47.860Z,4.65
2019-04-11T13:04:19.859Z,5.80
2019-04-11T13:07:00.987Z,4.40
2019-04-11T13:09:49.816Z,4.90
2019-04-11T13:12:35.739Z,4.30
2019-04-11T13:15:09.265Z,3.98
2019-04-11T13:17:59.291Z,4.50
2019-04-11T13:20:32.700Z,4.95
2019-04-11T13:23:19.929Z,4.28
2019-04-11T13:26:08.359Z,4.50
2019-04-11T13:28:42.997Z,4.70
2019-04-11T13:31:31.232Z,4.40
2019-04-11T13:34:11.207Z,5.42
2019-04-11T13:36:58.039Z,4.50
2019-04-11T13:39:29.037Z,4.28
2019-04-11T13:42:04.080Z,4.87
2019-04-11T13:44:41.660Z,4.60
2019-04-11T13:47:25.580Z,4.12
2019-04-11T13:49:58.945Z,4.78
2019-04-11T13:52:30.909Z,3.95
2019-04-11T13:55:06.478Z,3.60
2019-04-11T13:57:59.186Z,4.70
2019-04-11T14:00:40.142Z,4.55
2019-04-11T14:03:29.573Z,5.25
2019-04-11T14:06:01.772Z,5.45
2019-04-11T14:08:37.063Z,4.97
2019-04-11T14:11:11.670Z,5.58
2019-04-11T14:13:43.920Z,5.22
2019-04-11T14:16:18.868Z,5.62
2019-04-11T14:18:51.011Z,4.60
2019-04-11T14:21:31.780Z,4.80
2019-04-11T14:24:11.600Z,5.08
2019-04-11T14:26:57.239Z,4.85
2019-04-11T14:29:29.379Z,5.15
2019-04-11T14:32:01.437Z,5.95
2019-04-11T14:34:39.334Z,7.05
2019-04-11T14:37:11.500Z,5.97
2019-04-11T14:39:46.160Z,5.90
2019-04-11T14:42:36.181Z,6.30
2019-04-11T14:45:11.801Z,6.00
2019-04-11T14:48:00.108Z,7.05
2019-04-11T14:50:40.553Z,5.70
2019-04-11T14:53:22.377Z,6.30
2019-04-11T14:55:54.532Z,6.65
2019-04-11T14:58:35.919Z,5.55
2019-04-11T15:01:07.990Z,5.30
2019-04-11T15:04:02.217Z,5.50
2019-04-11T15:06:55.487Z,5.40
2019-04-11T15:13:05.561Z,5.80
2019-04-11T15:15:48.470Z,6.25
2019-04-11T15:18:19.868Z,5.97
2019-04-11T15:20:56.498Z,5.25
2019-04-11T15:23:41.049Z,5.80
2019-04-11T15:26:21.819Z,5.78
2019-04-11T15:28:54.106Z,6.28
2019-04-11T15:31:39.468Z,5.40
2019-04-11T15:34:24.082Z,6.67
2019-04-11T15:37:11.159Z,7.65
2019-04-11T15:39:59.946Z,7.30
2019-04-11T15:42:47.085Z,7.45
2019-04-11T15:45:25.398Z,7.62
2019-04-11T15:47:57.654Z,8.25
2019-04-11T15:50:46.129Z,8.80
2019-04-11T15:53:18.279Z,9.75
2019-04-11T15:56:07.833Z,13.22
2019-04-11T15:58:52.973Z,10.30
2019-04-11T16:01:42.794Z,10.60
2019-04-11T16:04:18.043Z,10.25
2019-04-11T16:07:08.670Z,11.03
2019-04-11T16:09:42.158Z,11.33
2019-04-11T16:12:16.379Z,12.98
2019-04-11T16:14:48.851Z,11.83
2019-04-11T16:17:38.736Z,12.33
2019-04-11T16:20:37.874Z,12.55
2019-04-11T16:23:40.775Z,12.80
2019-04-11T16:29:32.802Z,13.50
2019-04-11T16:32:15.263Z,13.53
2019-04-11T16:34:55.754Z,17.62
2019-04-11T16:37:48.449Z,15.93
2019-04-11T16:40:53.403Z,15.23
2019-04-11T16:43:25.152Z,14.40
2019-04-11T16:46:16.156Z,15.27
2019-04-11T16:48:47.936Z,16.17
2019-04-11T16:51:30.152Z,15.93
2019-04-11T16:53:50.593Z,17.82
2019-04-11T16:56:21.311Z,16.40
2019-04-11T16:58:55.057Z,16.43
2019-04-11T17:04:39.404Z,18.00
2019-04-11T17:07:31.486Z,19.87
2019-04-11T17:10:07.987Z,18.73
2019-04-11T17:12:38.952Z,19.80
2019-04-11T17:15:12.602Z,19.23
2019-04-11T17:17:48.346Z,20.97
2019-04-11T17:20:21.655Z,24.40
2019-04-11T18:02:25.807Z,34.67
2019-04-11T18:04:59.748Z,33.00
2019-04-11T18:08:12.827Z,30.67
2019-04-11T18:10:45.541Z,28.67
2019-04-11T18:13:18.843Z,29.93
2019-04-11T18:15:49.511Z,29.57
2019-04-11T18:18:21.631Z,28.67
2019-04-11T18:20:55.678Z,29.33
2019-04-11T18:23:37.447Z,29.30
2019-04-11T18:26:09.794Z,29.47
2019-04-11T18:28:43.220Z,30.30
2019-04-11T18:35:01.776Z,33.20
2019-04-11T18:58:17.873Z,39.83
2019-04-11T19:00:54.634Z,37.03
2019-04-11T19:03:35.999Z,34.60
2019-04-11T19:06:03.916Z,35.73
2019-04-11T19:08:43.117Z,34.43
2019-04-11T19:11:43.941Z,34.50
2019-04-11T19:14:17.299Z,33.87
2019-04-11T19:16:56.986Z,34.87
2019-04-11T19:19:32.643Z,34.80
2019-04-11T19:22:05.570Z,36.60
2019-04-11T19:24:36.417Z,33.50
2019-04-11T19:27:08.137Z,34.63
2019-04-11T19:29:39.050Z,38.02
2019-04-11T19:32:17.387Z,39.87
2019-04-11T19:34:50.911Z,45.80
2019-04-11T19:37:27.033Z,32.93
2019-04-11T19:39:57.818Z,32.07
2019-04-11T19:42:33.008Z,33.73
2019-04-11T19:45:20.165Z,36.07
2019-04-11T19:47:52.253Z,38.13
2019-04-11T19:50:26.773Z,35.83
2019-04-11T19:52:57.924Z,40.73
2019-04-11T20:03:31.692Z,33.43
2019-04-11T20:26:19.974Z,45.90
2019-04-11T20:29:15.968Z,35.87
2019-04-11T20:31:48.042Z,40.93
2019-04-11T20:34:27.501Z,35.50
2019-04-11T20:36:50.517Z,37.13
2019-04-11T20:39:20.934Z,31.50
2019-04-11T20:41:53.464Z,29.83
2019-04-11T20:44:27.125Z,28.53
2019-04-11T20:46:55.600Z,26.37
2019-04-11T20:49:26.058Z,26.27
2019-04-11T20:51:56.432Z,31.60
2019-04-11T20:54:41.027Z,26.40
2019-04-11T20:57:12.676Z,29.60
2019-04-11T20:59:43.328Z,29.40
2019-04-11T21:02:16.542Z,29.57
2019-04-11T21:04:46.966Z,29.77
2019-04-11T21:07:17.520Z,31.30
2019-04-11T21:09:47.901Z,30.73
2019-04-11T21:12:18.248Z,27.37
2019-04-11T21:14:48.791Z,27.87
2019-04-11T21:17:19.195Z,28.33
2019-04-11T21:19:50.928Z,25.57
2019-04-11T21:22:23.945Z,22.57
2019-04-11T21:24:53.961Z,26.80
2019-04-11T21:27:24.364Z,30.60
2019-04-11T21:29:55.066Z,22.90
2019-04-11T21:32:25.500Z,19.77
2019-04-11T21:34:55.898Z,25.03
2019-04-11T21:37:26.351Z,18.50
2019-04-11T21:39:56.875Z,20.03
2019-04-11T21:42:27.263Z,20.47
2019-04-11T21:44:57.863Z,22.03
2019-04-11T21:47:31.333Z,32.90
2019-04-11T21:50:09.414Z,18.73
2019-04-11T21:52:43.435Z,17.37
2019-04-11T21:55:15.046Z,18.57
2019-04-11T21:57:48.303Z,20.10
2019-04-11T22:00:22.154Z,21.93
2019-04-11T22:02:51.997Z,27.23
2019-04-11T22:05:23.674Z,40.40
2019-04-11T22:07:55.581Z,28.60
2019-04-11T22:10:26.531Z,28.20
2019-04-11T22:12:57.047Z,23.27
2019-04-11T22:15:28.794Z,21.73
2019-04-11T22:17:59.246Z,19.40
2019-04-11T22:20:31.312Z,19.90
2019-04-11T22:23:01.720Z,20.43
2019-04-11T22:25:33.591Z,19.20
2019-04-11T22:28:03.977Z,16.80
2019-04-11T22:30:34.566Z,17.33
2019-04-11T22:33:06.907Z,17.42
2019-04-11T22:35:37.758Z,16.70
2019-04-11T22:38:08.208Z,24.77
2019-04-11T22:40:38.683Z,20.20
2019-04-11T22:43:22.539Z,22.37
2019-04-11T22:45:42.231Z,24.00
2019-04-11T22:48:12.736Z,22.53
2019-04-11T22:50:43.231Z,21.20
2019-04-11T22:53:13.639Z,21.43
2019-04-11T22:55:44.095Z,22.37
2019-04-11T22:58:14.779Z,21.03
2019-04-11T23:00:45.970Z,21.23
2019-04-11T23:03:18.306Z,22.00
2019-04-11T23:05:48.731Z,21.47
2019-04-11T23:08:19.897Z,22.50
2019-04-11T23:10:50.481Z,22.60
2019-04-11T23:13:20.971Z,20.13
2019-04-11T23:15:51.538Z,17.77
2019-04-11T23:18:22.027Z,15.63
2019-04-11T23:20:52.418Z,15.77
2019-04-11T23:23:23.026Z,15.43
2019-04-11T23:25:53.457Z,16.07
2019-04-11T23:28:23.984Z,14.90
2019-04-11T23:30:54.451Z,15.50
2019-04-11T23:33:24.921Z,18.35
2019-04-11T23:35:55.421Z,16.37
2019-04-11T23:38:25.933Z,17.07
2019-04-11T23:40:56.521Z,16.63
2019-04-11T23:43:27.195Z,17.00
2019-04-11T23:45:57.680Z,16.27
2019-04-11T23:48:28.228Z,16.87
2019-04-11T23:50:58.705Z,20.10
2019-04-11T23:53:29.308Z,17.93
2019-04-11T23:56:00.732Z,18.07
2019-04-11T23:58:32.126Z,19.33
